Garanhuns, Brazil
Current Conditions -  °F | °C
As of 3:00 PM on Saturday 25 Oct 2014 (Local Time) from SBMO Reporting Station
Scattered Clouds Scattered Clouds  
Wind Chill: 27°   Ceiling: Unl
Heat Index: 28°   Visibility: 6mi
Dew Point: 20°   Wind: 14mph
Humidity: 65%   Direction: 100°E
Pressure: 29.91"   Gusts: NA
Location:  8.89°S, 36.5°W
Report Text: SBMO 251800Z 10012KT 9999 SCT020 27/20 Q1013
Loading
Personal Weather Stations






























Interactive Weather Map
Tropical Storm Tracking
New forecast layout! Learn more

10-Day Weather Forecast

Advertisements
Track Severe Weather on mobile